createdAt,value
2023-04-22T00:02:55.950Z,100.00
2023-04-22T00:07:59.062Z,100.00
2023-04-22T00:13:00.720Z,100.00
2023-04-22T00:18:02.325Z,100.00
2023-04-22T00:23:05.418Z,100.00
2023-04-22T00:28:07.118Z,100.00
2023-04-22T00:33:08.794Z,100.00
2023-04-22T00:38:11.875Z,100.00
2023-04-22T00:43:14.131Z,100.00
2023-04-22T00:48:15.777Z,100.00
2023-04-22T00:53:18.806Z,100.00
2023-04-22T00:58:21.422Z,100.00
2023-04-22T01:03:23.866Z,100.00
2023-04-22T01:08:28.809Z,100.00
2023-04-22T01:13:30.601Z,100.00
2023-04-22T01:18:33.047Z,100.00
2023-04-22T01:23:36.506Z,100.00
2023-04-22T01:28:38.672Z,100.00
2023-04-22T01:33:40.369Z,100.00
2023-04-22T01:38:43.594Z,100.00
2023-04-22T01:43:45.446Z,100.00
2023-04-22T01:48:47.088Z,100.00
2023-04-22T01:53:50.833Z,100.00
2023-04-22T01:58:52.492Z,100.00
2023-04-22T02:03:54.357Z,100.00
2023-04-22T02:08:57.423Z,100.00
2023-04-22T02:13:59.101Z,100.00
2023-04-22T02:19:00.757Z,100.00
2023-04-22T02:24:04.119Z,100.00
2023-04-22T02:29:05.774Z,100.00
2023-04-22T02:34:07.454Z,100.00
2023-04-22T02:39:10.592Z,100.00
2023-04-22T02:44:12.283Z,100.00
2023-04-22T02:49:13.910Z,100.00
2023-04-22T02:54:17.055Z,100.00
2023-04-22T02:59:18.680Z,100.00
2023-04-22T03:04:20.428Z,100.00
2023-04-22T03:09:23.517Z,100.00
2023-04-22T03:14:25.317Z,100.00
2023-04-22T03:19:27.033Z,100.00
2023-04-22T03:24:30.005Z,100.00
2023-04-22T03:29:31.719Z,100.00
2023-04-22T03:34:34.604Z,100.00
2023-04-22T03:39:39.299Z,100.00
2023-04-22T03:44:41.208Z,100.00
2023-04-22T03:49:42.954Z,100.00
2023-04-22T03:54:45.991Z,100.00
2023-04-22T03:59:47.616Z,100.00
2023-04-22T04:04:49.627Z,100.00
2023-04-22T04:09:52.887Z,100.00
2023-04-22T04:14:54.617Z,100.00
2023-04-22T04:19:56.318Z,100.00
2023-04-22T04:24:59.333Z,100.00
2023-04-22T04:30:00.956Z,100.00
2023-04-22T04:35:02.647Z,100.00
2023-04-22T04:40:07.313Z,100.00
2023-04-22T04:45:09.444Z,100.00
2023-04-22T04:50:11.495Z,100.00
2023-04-22T04:55:14.657Z,100.00
2023-04-22T05:00:16.629Z,100.00
2023-04-22T05:05:18.317Z,100.00
2023-04-22T05:10:21.539Z,100.00
2023-04-22T05:15:23.150Z,100.00
2023-04-22T05:20:24.955Z,100.00
2023-04-22T05:25:27.936Z,100.00
2023-04-22T05:30:29.689Z,100.00
2023-04-22T05:35:31.391Z,100.00
2023-04-22T05:40:34.487Z,98.43
2023-04-22T05:45:36.339Z,86.61
2023-04-22T05:50:37.934Z,83.14
2023-04-22T05:55:41.123Z,77.81
2023-04-22T06:00:42.773Z,80.99
2023-04-22T06:05:44.576Z,73.63
2023-04-22T06:10:47.603Z,65.79
2023-04-22T06:15:51.097Z,58.09
2023-04-22T06:20:52.881Z,53.15
2023-04-22T06:25:56.049Z,55.19
2023-04-22T06:30:59.538Z,52.95
2023-04-22T06:36:05.618Z,51.77
2023-04-22T06:41:11.830Z,59.41
2023-04-22T06:46:13.478Z,52.67
2023-04-22T06:51:15.384Z,44.15
2023-04-22T06:56:18.877Z,43.39
2023-04-22T07:01:20.614Z,44.10
2023-04-22T07:06:22.318Z,40.71
2023-04-22T07:11:25.424Z,39.61
2023-04-22T07:16:27.339Z,38.49
2023-04-22T07:21:29.129Z,37.91
2023-04-22T07:26:32.449Z,33.86
2023-04-22T07:31:35.647Z,34.97
2023-04-22T07:36:37.393Z,33.54
2023-04-22T07:41:40.509Z,33.06
2023-04-22T07:46:42.494Z,32.92
2023-04-22T07:51:44.509Z,35.36
2023-04-22T07:56:47.654Z,31.57
2023-04-22T08:01:49.278Z,35.60
2023-04-22T08:06:50.997Z,40.28
2023-04-22T08:11:54.207Z,41.98
2023-04-22T08:16:55.981Z,44.18
2023-04-22T08:21:57.636Z,43.54
2023-04-22T08:27:00.825Z,40.96
2023-04-22T08:32:03.020Z,38.93
2023-04-22T08:37:04.983Z,40.90
2023-04-22T08:42:08.198Z,45.63
2023-04-22T08:47:11.189Z,48.35
2023-04-22T08:52:16.030Z,50.48
2023-04-22T08:57:19.756Z,50.99
2023-04-22T09:02:23.339Z,52.56
2023-04-22T09:07:27.313Z,49.59
2023-04-22T09:12:30.345Z,49.47
2023-04-22T09:17:33.293Z,52.08
2023-04-22T09:22:39.604Z,53.73
2023-04-22T09:27:42.889Z,54.16
2023-04-22T09:32:52.011Z,52.15
2023-04-22T09:37:53.949Z,51.52
2023-04-22T09:42:58.793Z,53.25
2023-04-22T09:48:02.849Z,53.85
2023-04-22T09:53:07.077Z,54.37
2023-04-22T09:58:12.022Z,54.88
2023-04-22T10:03:13.638Z,52.84
2023-04-22T10:08:16.745Z,55.69
2023-04-22T10:13:20.149Z,52.64
2023-04-22T10:18:24.329Z,49.93
2023-04-22T10:23:26.089Z,47.65
2023-04-22T10:28:29.326Z,51.36
2023-04-22T10:33:38.089Z,49.90
2023-04-22T10:38:41.334Z,49.95
2023-04-22T10:43:46.336Z,51.36
2023-04-22T10:48:48.029Z,49.82
2023-04-22T10:53:49.685Z,53.57
2023-04-22T10:58:52.712Z,50.47
2023-04-22T11:03:54.572Z,49.99
2023-04-22T11:09:09.043Z,52.40
2023-04-22T11:14:12.593Z,50.67
2023-04-22T11:19:14.190Z,53.67
2023-04-22T11:24:18.303Z,57.01
2023-04-22T11:29:21.302Z,58.32
2023-04-22T11:34:24.977Z,59.57
2023-04-22T11:39:35.225Z,58.56
2023-04-22T11:44:38.701Z,59.63
2023-04-22T11:49:40.487Z,59.04
2023-04-22T11:54:42.229Z,62.06
2023-04-22T11:59:57.075Z,62.41
2023-04-22T12:04:59.479Z,64.03
2023-04-22T12:10:01.187Z,62.91
2023-04-22T12:15:13.662Z,58.83
2023-04-22T12:20:15.677Z,54.93
2023-04-22T12:25:18.574Z,55.20
2023-04-22T12:30:21.741Z,56.12
2023-04-22T12:35:23.360Z,55.51
2023-04-22T12:40:25.098Z,56.81
2023-04-22T12:45:28.183Z,56.62
2023-04-22T12:50:30.073Z,55.33
2023-04-22T12:55:32.880Z,57.89
2023-04-22T13:00:35.888Z,59.79
2023-04-22T13:05:37.564Z,58.44
2023-04-22T13:10:39.237Z,58.13
2023-04-22T13:15:42.514Z,58.42
2023-04-22T13:20:44.320Z,59.34
2023-04-22T13:25:45.933Z,58.26
2023-04-22T13:30:48.998Z,62.21
2023-04-22T13:35:50.644Z,60.92
2023-04-22T13:40:52.278Z,62.89
2023-04-22T13:45:55.365Z,63.05
2023-04-22T13:50:57.124Z,60.68
2023-04-22T13:55:58.790Z,60.12
2023-04-22T14:01:01.770Z,61.85
2023-04-22T14:06:03.593Z,60.20
2023-04-22T14:11:06.845Z,61.81
2023-04-22T14:16:10.039Z,60.15
2023-04-22T14:21:12.498Z,61.54
2023-04-22T14:26:14.223Z,62.07
2023-04-22T14:31:17.322Z,63.39
2023-04-22T14:36:19.001Z,62.85
2023-04-22T14:41:20.746Z,63.54
2023-04-22T14:46:23.708Z,62.37
2023-04-22T14:51:25.378Z,64.32
2023-04-22T14:56:26.991Z,62.10
2023-04-22T15:01:33.862Z,62.68
2023-04-22T15:06:35.509Z,63.26
2023-04-22T15:11:37.161Z,64.08
2023-04-22T15:16:40.213Z,64.78
2023-04-22T15:21:41.847Z,65.57
2023-04-22T15:26:43.531Z,64.61
2023-04-22T15:31:47.152Z,63.96
2023-04-22T15:36:49.152Z,65.84
2023-04-22T15:41:50.913Z,65.52
2023-04-22T15:46:54.077Z,65.97
2023-04-22T15:51:55.700Z,64.79
2023-04-22T15:56:57.335Z,66.03
2023-04-22T16:02:00.723Z,67.37
2023-04-22T16:07:02.483Z,68.65
2023-04-22T16:12:04.283Z,68.05
2023-04-22T16:17:07.383Z,67.13
2023-04-22T16:22:09.017Z,66.89
2023-04-22T16:27:10.704Z,68.31
2023-04-22T16:32:13.790Z,68.51
2023-04-22T16:37:15.517Z,67.66
2023-04-22T16:42:17.205Z,67.54
2023-04-22T16:47:20.234Z,69.73
2023-04-22T16:52:21.847Z,72.64
2023-04-22T16:57:23.605Z,72.29
2023-04-22T17:02:26.807Z,72.50
2023-04-22T17:07:28.776Z,71.51
2023-04-22T17:12:30.389Z,68.26
2023-04-22T17:17:33.411Z,69.72
2023-04-22T17:22:35.056Z,69.78
2023-04-22T17:27:36.677Z,72.63
2023-04-22T17:32:39.687Z,73.54
2023-04-22T17:37:41.325Z,79.92
2023-04-22T17:42:46.304Z,79.36
2023-04-22T17:47:49.541Z,73.89
2023-04-22T17:52:51.444Z,81.47
2023-04-22T17:57:53.064Z,82.91
2023-04-22T18:02:56.438Z,80.60
2023-04-22T18:07:58.231Z,82.65
2023-04-22T18:12:59.875Z,88.43
2023-04-22T18:18:02.853Z,84.09
2023-04-22T18:23:04.523Z,87.08
2023-04-22T18:28:06.199Z,88.50
2023-04-22T18:33:09.416Z,89.86
2023-04-22T18:38:11.064Z,92.61
2023-04-22T18:43:12.729Z,95.45
2023-04-22T18:48:15.816Z,99.72
2023-04-22T18:53:17.420Z,100.00
2023-04-22T18:58:19.067Z,100.00
2023-04-22T19:03:22.249Z,100.00
2023-04-22T19:08:24.011Z,100.00
2023-04-22T19:13:29.642Z,100.00
2023-04-22T19:18:33.231Z,100.00
2023-04-22T19:23:38.077Z,100.00
2023-04-22T19:28:39.782Z,100.00
2023-04-22T19:33:42.990Z,100.00
2023-04-22T19:38:44.670Z,100.00
2023-04-22T19:43:46.455Z,100.00
2023-04-22T19:48:50.175Z,100.00
2023-04-22T19:53:54.219Z,100.00
2023-04-22T19:58:56.269Z,100.00
2023-04-22T20:04:00.348Z,100.00
2023-04-22T20:09:02.369Z,100.00
2023-04-22T20:14:04.853Z,100.00
2023-04-22T20:19:08.242Z,100.00
2023-04-22T20:24:12.868Z,100.00
2023-04-22T20:29:15.085Z,100.00
2023-04-22T20:34:18.624Z,100.00
2023-04-22T20:39:22.675Z,100.00
2023-04-22T20:44:24.436Z,100.00
2023-04-22T20:49:27.514Z,100.00
2023-04-22T20:54:29.556Z,100.00
2023-04-22T20:59:34.815Z,100.00
2023-04-22T21:04:38.254Z,100.00
2023-04-22T21:09:40.325Z,100.00
2023-04-22T21:14:43.722Z,100.00
2023-04-22T21:19:49.796Z,100.00
2023-04-22T21:24:52.597Z,100.00
2023-04-22T21:29:54.776Z,100.00
2023-04-22T21:34:57.819Z,100.00
2023-04-22T21:39:59.604Z,100.00
2023-04-22T21:45:01.269Z,100.00
2023-04-22T21:50:05.132Z,100.00
2023-04-22T21:55:07.198Z,100.00
2023-04-22T22:00:09.955Z,100.00
2023-04-22T22:05:13.785Z,100.00
2023-04-22T22:10:17.590Z,100.00
2023-04-22T22:15:19.321Z,100.00
2023-04-22T22:20:22.386Z,100.00
2023-04-22T22:25:24.324Z,100.00
2023-04-22T22:30:26.124Z,100.00
2023-04-22T22:35:29.478Z,100.00
2023-04-22T22:40:31.331Z,100.00
2023-04-22T22:45:33.399Z,100.00
2023-04-22T22:50:36.489Z,100.00
2023-04-22T22:55:38.188Z,100.00
2023-04-22T23:00:39.866Z,100.00
2023-04-22T23:05:43.208Z,100.00
2023-04-22T23:10:44.846Z,100.00
2023-04-22T23:15:46.517Z,100.00
2023-04-22T23:20:50.878Z,100.00
2023-04-22T23:25:53.090Z,100.00
2023-04-22T23:30:55.717Z,100.00
2023-04-22T23:36:00.699Z,100.00
2023-04-22T23:41:02.350Z,100.00
2023-04-22T23:46:04.331Z,100.00
2023-04-22T23:51:07.579Z,100.00
2023-04-22T23:56:10.449Z,100.00
